Delta Virtual Airport Information Service

Redmond Municipal Airport

ICAO: KRDM Country: United States
Latitude: 44.2541 Longitude: -121.149
Latest Arrival : SKW3607 (1C) (KSEA-KRDM) Latest Departure : SKW3512 (1B) (KRDM-KSLC)


WX CaptureLIVE
Data provided by noaa.gov | Fetched at 00:32:32

METAR : KRDM 120456Z 34008KT 10SM CLR 16/M02 A3010 RMK AO2 SLP177 T01561017

TAF : KRDM 112320Z 1200/1224 34009G15KT P6SM SCT250 FM120500 VRB05KT P6SM SCT250 FM122000 33012G20KT P6SM FEW100 FEW150


Runway Data for KRDM
Data provided by openaviationdata.com

Runway ID Mag Var Hdg Length Elevation Surface ILS Freq ILS Id ILS Slope
4 17 42° 7030 ft 3076 ft Asphalt -- -- --
10 17 104° 6989 ft 3076 ft Asphalt -- -- --
22 17 222° 7030 ft 3076 ft Asphalt 109.1 IRDM 3
28 17 284° 6989 ft 3076 ft Asphalt -- -- --

Redmond Municipal Airport, United States
Use only for reference purposes



Not for navigational purposes.